sensor_id;sensor_type;location;lat;lon;timestamp;pressure;altitude;pressure_sealevel;temperature;humidity
39823;BME280;25499;53.958;10.970;2023-12-20T07:08:05;100192.91;;;4.54;100.00
39823;BME280;25499;53.958;10.970;2023-12-20T07:10:32;100189.47;;;4.55;100.00
39823;BME280;25499;53.958;10.970;2023-12-20T07:12:59;100185.19;;;4.56;100.00
39823;BME280;25499;53.958;10.970;2023-12-20T07:15:25;100186.03;;;4.56;100.00
39823;BME280;25499;53.958;10.970;2023-12-20T07:17:54;100195.50;;;4.57;100.00
39823;BME280;25499;53.958;10.970;2023-12-20T07:20:21;100181.81;;;4.61;100.00
39823;BME280;25499;53.958;10.970;2023-12-20T07:22:48;100184.38;;;4.61;100.00
39823;BME280;25499;53.958;10.970;2023-12-20T07:25:17;100186.09;;;4.61;100.00
39823;BME280;25499;53.958;10.970;2023-12-20T07:27:45;100181.78;;;4.60;100.00
39823;BME280;25499;53.958;10.970;2023-12-20T07:30:12;100180.13;;;4.63;100.00
39823;BME280;25499;53.958;10.970;2023-12-20T07:32:39;100176.72;;;4.67;100.00
39823;BME280;25499;53.958;10.970;2023-12-20T07:35:06;100178.47;;;4.69;100.00
39823;BME280;25499;53.958;10.970;2023-12-20T07:37:33;100176.72;;;4.66;100.00
39823;BME280;25499;53.958;10.970;2023-12-20T07:40:00;100182.72;;;4.66;100.00
39823;BME280;25499;53.958;10.970;2023-12-20T07:42:28;100185.28;;;4.66;100.00
39823;BME280;25499;53.958;10.970;2023-12-20T07:44:55;100194.78;;;4.69;100.00
39823;BME280;25499;53.958;10.970;2023-12-20T07:47:22;100193.97;;;4.70;100.00
39823;BME280;25499;53.958;10.970;2023-12-20T07:49:49;100195.63;;;4.68;100.00
39823;BME280;25499;53.958;10.970;2023-12-20T07:52:17;100193.91;;;4.67;100.00
39823;BME280;25499;53.958;10.970;2023-12-20T07:54:44;100186.16;;;4.64;100.00
39823;BME280;25499;53.958;10.970;2023-12-20T07:57:11;100178.38;;;4.62;100.00
39823;BME280;25499;53.958;10.970;2023-12-20T07:59:39;100171.47;;;4.60;100.00
39823;BME280;25499;53.958;10.970;2023-12-20T08:02:06;100170.63;;;4.59;100.00
39823;BME280;25499;53.958;10.970;2023-12-20T08:04:39;100156.88;;;4.59;100.00
39823;BME280;25499;53.958;10.970;2023-12-20T08:07:06;100148.28;;;4.60;100.00
39823;BME280;25499;53.958;10.970;2023-12-20T08:09:33;100148.28;;;4.58;100.00
39823;BME280;25499;53.958;10.970;2023-12-20T08:12:02;100152.56;;;4.59;100.00
39823;BME280;25499;53.958;10.970;2023-12-20T08:14:29;100154.34;;;4.65;100.00
39823;BME280;25499;53.958;10.970;2023-12-20T08:16:58;100165.53;;;4.64;100.00
39823;BME280;25499;53.958;10.970;2023-12-20T08:19:24;100171.53;;;4.64;100.00
39823;BME280;25499;53.958;10.970;2023-12-20T08:21:51;100176.69;;;4.64;100.00
39823;BME280;25499;53.958;10.970;2023-12-20T08:24:18;100162.06;;;4.65;100.00
39823;BME280;25499;53.958;10.970;2023-12-20T08:26:45;100156.91;;;4.65;100.00
39823;BME280;25499;53.958;10.970;2023-12-20T08:29:13;100155.25;;;4.67;100.00
39823;BME280;25499;53.958;10.970;2023-12-20T08:31:40;100148.38;;;4.69;100.00
39823;BME280;25499;53.958;10.970;2023-12-20T08:34:08;100153.50;;;4.66;100.00
39823;BME280;25499;53.958;10.970;2023-12-20T08:36:37;100157.88;;;4.70;100.00
39823;BME280;25499;53.958;10.970;2023-12-20T08:39:03;100151.78;;;4.66;100.00
39823;BME280;25499;53.958;10.970;2023-12-20T08:41:32;100156.09;;;4.66;100.00
39823;BME280;25499;53.958;10.970;2023-12-20T08:43:59;100149.19;;;4.65;100.00
39823;BME280;25499;53.958;10.970;2023-12-20T08:46:26;100131.13;;;4.65;100.00
39823;BME280;25499;53.958;10.970;2023-12-20T08:48:53;100108.81;;;4.64;100.00
39823;BME280;25499;53.958;10.970;2023-12-20T08:51:21;100108.84;;;4.67;100.00
39823;BME280;25499;53.958;10.970;2023-12-20T08:53:49;100094.25;;;4.69;100.00
39823;BME280;25499;53.958;10.970;2023-12-20T08:56:15;100081.31;;;4.66;100.00
39823;BME280;25499;53.958;10.970;2023-12-20T08:58:43;100080.44;;;4.64;100.00
39823;BME280;25499;53.958;10.970;2023-12-20T09:01:10;100075.34;;;4.69;100.00
39823;BME280;25499;53.958;10.970;2023-12-20T09:03:36;100069.34;;;4.73;100.00
39823;BME280;25499;53.958;10.970;2023-12-20T09:06:04;100071.97;;;4.77;100.00
39823;BME280;25499;53.958;10.970;2023-12-20T09:08:32;100077.16;;;4.79;100.00
39823;BME280;25499;53.958;10.970;2023-12-20T09:10:59;100068.53;;;4.78;100.00
39823;BME280;25499;53.958;10.970;2023-12-20T09:13:26;100072.88;;;4.81;100.00
39823;BME280;25499;53.958;10.970;2023-12-20T09:15:53;100065.97;;;4.75;100.00
39823;BME280;25499;53.958;10.970;2023-12-20T09:18:21;100060.81;;;4.75;100.00
39823;BME280;25499;53.958;10.970;2023-12-20T09:20:48;100055.66;;;4.75;100.00
39823;BME280;25499;53.958;10.970;2023-12-20T09:23:15;100058.22;;;4.78;100.00
39823;BME280;25499;53.958;10.970;2023-12-20T09:25:43;100058.22;;;4.78;100.00
39823;BME280;25499;53.958;10.970;2023-12-20T09:28:10;100059.13;;;4.80;100.00
39823;BME280;25499;53.958;10.970;2023-12-20T09:30:37;100077.16;;;4.82;100.00
39823;BME280;25499;53.958;10.970;2023-12-20T09:33:06;100060.00;;;4.82;100.00
39823;BME280;25499;53.958;10.970;2023-12-20T09:35:33;100066.88;;;4.83;100.00
39823;BME280;25499;53.958;10.970;2023-12-20T09:38:00;100072.06;;;4.86;100.00
39823;BME280;25499;53.958;10.970;2023-12-20T09:40:27;100071.19;;;4.86;100.00
39823;BME280;25499;53.958;10.970;2023-12-20T09:42:58;100069.50;;;4.90;100.00
39823;BME280;25499;53.958;10.970;2023-12-20T09:45:30;100065.19;;;4.89;100.00
39823;BME280;25499;53.958;10.970;2023-12-20T09:47:58;100057.47;;;4.90;100.00
39823;BME280;25499;53.958;10.970;2023-12-20T09:50:25;100055.72;;;4.84;100.00
39823;BME280;25499;53.958;10.970;2023-12-20T09:52:53;100046.22;;;4.80;100.00
39823;BME280;25499;53.958;10.970;2023-12-20T09:55:22;100059.97;;;4.79;100.00
39823;BME280;25499;53.958;10.970;2023-12-20T09:57:50;100067.72;;;4.81;100.00
39823;BME280;25499;53.958;10.970;2023-12-20T10:00:18;100076.31;;;4.83;100.00
39823;BME280;25499;53.958;10.970;2023-12-20T10:02:50;100076.28;;;4.80;100.00
39823;BME280;25499;53.958;10.970;2023-12-20T10:05:17;100066.84;;;4.79;100.00
39823;BME280;25499;53.958;10.970;2023-12-20T10:07:45;100075.44;;;4.79;100.00
39823;BME280;25499;53.958;10.970;2023-12-20T10:10:13;100060.00;;;4.84;100.00
39823;BME280;25499;53.958;10.970;2023-12-20T10:12:41;100068.59;;;4.84;100.00
39823;BME280;25499;53.958;10.970;2023-12-20T10:15:28;100063.44;;;4.84;100.00
39823;BME280;25499;53.958;10.970;2023-12-20T10:17:56;100060.84;;;4.81;100.00
39823;BME280;25499;53.958;10.970;2023-12-20T10:20:23;100074.59;;;4.83;100.00
39823;BME280;25499;53.958;10.970;2023-12-20T10:22:51;100075.47;;;4.82;100.00
39823;BME280;25499;53.958;10.970;2023-12-20T10:25:19;100070.25;;;4.76;100.00
39823;BME280;25499;53.958;10.970;2023-12-20T10:27:46;100072.81;;;4.75;100.00
39823;BME280;25499;53.958;10.970;2023-12-20T10:30:13;100076.25;;;4.74;100.00
39823;BME280;25499;53.958;10.970;2023-12-20T10:32:42;100076.22;;;4.72;100.00
39823;BME280;25499;53.958;10.970;2023-12-20T10:35:08;100067.63;;;4.70;100.00
39823;BME280;25499;53.958;10.970;2023-12-20T10:37:35;100079.56;;;4.62;100.00
39823;BME280;25499;53.958;10.970;2023-12-20T10:40:03;100083.03;;;4.65;100.00
39823;BME280;25499;53.958;10.970;2023-12-20T10:42:32;100072.75;;;4.69;100.00
39823;BME280;25499;53.958;10.970;2023-12-20T10:45:00;100076.19;;;4.69;100.00
39823;BME280;25499;53.958;10.970;2023-12-20T10:47:28;100079.69;;;4.74;100.00
39823;BME280;25499;53.958;10.970;2023-12-20T10:50:01;100072.78;;;4.70;100.00
39823;BME280;25499;53.958;10.970;2023-12-20T10:52:32;100074.50;;;4.71;100.00
39823;BME280;25499;53.958;10.970;2023-12-20T10:55:01;100073.59;;;4.66;100.00
39823;BME280;25499;53.958;10.970;2023-12-20T10:57:27;100075.38;;;4.75;100.00
39823;BME280;25499;53.958;10.970;2023-12-20T10:59:56;100064.34;;;4.88;100.00
39823;BME280;25499;53.958;10.970;2023-12-20T11:02:29;100067.22;;;5.25;100.00
39823;BME280;25499;53.958;10.970;2023-12-20T11:04:59;100063.91;;;5.46;100.00
39823;BME280;25499;53.958;10.970;2023-12-20T11:07:35;100063.06;;;5.47;100.00
39823;BME280;25499;53.958;10.970;2023-12-20T11:10:18;100059.50;;;5.33;100.00
39823;BME280;25499;53.958;10.970;2023-12-20T11:12:48;100045.66;;;5.18;100.00
39823;BME280;25499;53.958;10.970;2023-12-20T11:15:19;100057.63;;;5.10;100.00
39823;BME280;25499;53.958;10.970;2023-12-20T11:17:54;100058.50;;;5.11;100.00
39823;BME280;25499;53.958;10.970;2023-12-20T11:20:22;100056.94;;;5.34;100.00
39823;BME280;25499;53.958;10.970;2023-12-20T11:22:54;100057.94;;;5.50;100.00
39823;BME280;25499;53.958;10.970;2023-12-20T11:25:21;100058.84;;;5.57;100.00
39823;BME280;25499;53.958;10.970;2023-12-20T11:28:07;100051.78;;;5.36;100.00
39823;BME280;25499;53.958;10.970;2023-12-20T11:30:41;100042.28;;;5.29;100.00
39823;BME280;25499;53.958;10.970;2023-12-20T11:33:08;100042.09;;;5.04;100.00
39823;BME280;25499;53.958;10.970;2023-12-20T11:35:35;100045.38;;;4.81;100.00
39823;BME280;25499;53.958;10.970;2023-12-20T11:38:03;100042.81;;;4.84;100.00
39823;BME280;25499;53.958;10.970;2023-12-20T11:40:33;100042.75;;;4.78;100.00
39823;BME280;25499;53.958;10.970;2023-12-20T11:43:02;100038.34;;;4.66;100.00
39823;BME280;25499;53.958;10.970;2023-12-20T11:45:29;100036.69;;;4.70;100.00
39823;BME280;25499;53.958;10.970;2023-12-20T11:47:56;100030.09;;;5.06;100.00
39823;BME280;25499;53.958;10.970;2023-12-20T11:50:24;100049.50;;;5.85;100.00
39823;BME280;25499;53.958;10.970;2023-12-20T11:52:52;100038.13;;;8.51;100.00
39823;BME280;25499;53.958;10.970;2023-12-20T11:55:22;100023.88;;;7.49;100.00
39823;BME280;25499;53.958;10.970;2023-12-20T11:57:49;100007.50;;;6.46;100.00
39823;BME280;25499;53.958;10.970;2023-12-20T12:00:17;100002.97;;;5.82;100.00
39823;BME280;25499;53.958;10.970;2023-12-20T12:02:55;100015.31;;;7.09;100.00
39823;BME280;25499;53.958;10.970;2023-12-20T12:05:22;100010.97;;;7.05;100.00
39823;BME280;25499;53.958;10.970;2023-12-20T12:07:48;100003.16;;;7.45;100.00
39823;BME280;25499;53.958;10.970;2023-12-20T12:10:15;100011.59;;;7.92;100.00
39823;BME280;25499;53.958;10.970;2023-12-20T12:12:44;100009.63;;;8.40;100.00
39823;BME280;25499;53.958;10.970;2023-12-20T12:15:11;100019.44;;;9.16;100.00
39823;BME280;25499;53.958;10.970;2023-12-20T12:17:38;100007.91;;;10.18;100.00
39823;BME280;25499;53.958;10.970;2023-12-20T12:20:06;99981.84;;;11.30;100.00
39823;BME280;25499;53.958;10.970;2023-12-20T12:22:35;99949.13;;;12.02;100.00
39823;BME280;25499;53.958;10.970;2023-12-20T12:25:10;99900.03;;;12.18;100.00
39823;BME280;25499;53.958;10.970;2023-12-20T12:27:40;99784.16;;;10.69;100.00
39823;BME280;25499;53.958;10.970;2023-12-20T12:30:09;99785.56;;;10.87;100.00
39823;BME280;25499;53.958;10.970;2023-12-20T12:32:39;99755.03;;;10.50;100.00
39823;BME280;25499;53.958;10.970;2023-12-20T12:35:07;99772.00;;;10.71;100.00
39823;BME280;25499;53.958;10.970;2023-12-20T12:37:37;99739.84;;;10.25;100.00
39823;BME280;25499;53.958;10.970;2023-12-20T12:40:05;99672.97;;;8.72;100.00
39823;BME280;25499;53.958;10.970;2023-12-20T12:42:32;99744.75;;;8.73;100.00
39823;BME280;25499;53.958;10.970;2023-12-20T12:44:59;99766.56;;;8.55;100.00
39823;BME280;25499;53.958;10.970;2023-12-20T12:47:27;99790.03;;;9.19;100.00
39823;BME280;25499;53.958;10.970;2023-12-20T12:49:54;99817.91;;;10.75;100.00
39823;BME280;25499;53.958;10.970;2023-12-20T12:52:21;99718.91;;;10.35;100.00
39823;BME280;25499;53.958;10.970;2023-12-20T12:54:48;99621.06;;;9.29;98.07
39823;BME280;25499;53.958;10.970;2023-12-20T12:57:15;99603.69;;;8.07;98.19
39823;BME280;25499;53.958;10.970;2023-12-20T12:59:43;99620.09;;;7.18;99.15
39823;BME280;25499;53.958;10.970;2023-12-20T13:02:11;99665.34;;;6.52;100.00
39823;BME280;25499;53.958;10.970;2023-12-20T13:04:40;99733.47;;;6.34;100.00
39823;BME280;25499;53.958;10.970;2023-12-20T13:07:07;99763.63;;;6.23;100.00
39823;BME280;25499;53.958;10.970;2023-12-20T13:09:37;99814.47;;;6.21;100.00
39823;BME280;25499;53.958;10.970;2023-12-20T13:12:04;99801.59;;;5.97;100.00
39823;BME280;25499;53.958;10.970;2023-12-20T13:14:32;99821.34;;;5.92;100.00
39823;BME280;25499;53.958;10.970;2023-12-20T13:17:00;99832.53;;;5.77;100.00
39823;BME280;25499;53.958;10.970;2023-12-20T13:19:26;99845.41;;;5.70;100.00
39823;BME280;25499;53.958;10.970;2023-12-20T13:21:54;99847.09;;;5.61;100.00
39823;BME280;25499;53.958;10.970;2023-12-20T13:24:21;99858.28;;;5.48;100.00
39823;BME280;25499;53.958;10.970;2023-12-20T13:26:48;99883.16;;;5.32;100.00
39823;BME280;25499;53.958;10.970;2023-12-20T13:29:15;99890.00;;;5.26;100.00
39823;BME280;25499;53.958;10.970;2023-12-20T13:31:42;99920.16;;;5.36;100.00
39823;BME280;25499;53.958;10.970;2023-12-20T13:34:09;99944.34;;;5.56;100.00
39823;BME280;25499;53.958;10.970;2023-12-20T13:36:36;99952.16;;;5.72;100.00
39823;BME280;25499;53.958;10.970;2023-12-20T13:39:04;99966.81;;;5.76;100.00
39823;BME280;25499;53.958;10.970;2023-12-20T13:41:32;99976.25;;;5.66;100.00
39823;BME280;25499;53.958;10.970;2023-12-20T13:43:59;99978.81;;;5.63;100.00
39823;BME280;25499;53.958;10.970;2023-12-20T13:46:27;99971.00;;;5.49;100.00
39823;BME280;25499;53.958;10.970;2023-12-20T13:48:53;99968.44;;;5.52;100.00
39823;BME280;25499;53.958;10.970;2023-12-20T13:51:20;99972.72;;;5.47;100.00
39823;BME280;25499;53.958;10.970;2023-12-20T13:53:47;99971.00;;;5.51;100.00
39823;BME280;25499;53.958;10.970;2023-12-20T13:56:15;99972.69;;;5.42;100.00
39823;BME280;25499;53.958;10.970;2023-12-20T13:58:43;99970.09;;;5.39;100.00
39823;BME280;25499;53.958;10.970;2023-12-20T14:01:11;99960.59;;;5.34;100.00
39823;BME280;25499;53.958;10.970;2023-12-20T14:03:38;99957.13;;;5.29;100.00
39823;BME280;25499;53.958;10.970;2023-12-20T14:06:06;99961.44;;;5.28;100.00
39823;BME280;25499;53.958;10.970;2023-12-20T14:08:33;99957.09;;;5.26;100.00
39823;BME280;25499;53.958;10.970;2023-12-20T14:11:01;99955.34;;;5.17;100.00
39823;BME280;25499;53.958;10.970;2023-12-20T14:13:29;99954.50;;;5.16;100.00
39823;BME280;25499;53.958;10.970;2023-12-20T14:15:56;99946.78;;;5.19;100.00
39823;BME280;25499;53.958;10.970;2023-12-20T14:18:25;99955.31;;;5.14;100.00
39823;BME280;25499;53.958;10.970;2023-12-20T14:20:53;99959.63;;;5.13;100.00
39823;BME280;25499;53.958;10.970;2023-12-20T14:23:20;99963.88;;;5.07;100.00
39823;BME280;25499;53.958;10.970;2023-12-20T14:25:48;99963.84;;;4.97;100.00
39823;BME280;25499;53.958;10.970;2023-12-20T14:28:15;99963.84;;;4.97;100.00
39823;BME280;25499;53.958;10.970;2023-12-20T14:30:44;99956.91;;;4.95;100.00
39823;BME280;25499;53.958;10.970;2023-12-20T14:33:11;99966.34;;;4.90;100.00
39823;BME280;25499;53.958;10.970;2023-12-20T14:35:38;99964.59;;;4.89;100.00
39823;BME280;25499;53.958;10.970;2023-12-20T14:38:06;99955.97;;;4.80;100.00
39823;BME280;25499;53.958;10.970;2023-12-20T14:40:32;99962.81;;;4.77;100.00
39823;BME280;25499;53.958;10.970;2023-12-20T14:42:59;99959.38;;;4.76;100.00
39823;BME280;25499;53.958;10.970;2023-12-20T14:45:27;99957.66;;;4.78;100.00
39823;BME280;25499;53.958;10.970;2023-12-20T14:47:55;99955.97;;;4.79;100.00
39823;BME280;25499;53.958;10.970;2023-12-20T14:50:22;99954.16;;;4.69;100.00
39823;BME280;25499;53.958;10.970;2023-12-20T14:52:49;99951.53;;;4.64;100.00
39823;BME280;25499;53.958;10.970;2023-12-20T14:55:16;99973.00;;;4.63;100.00
39823;BME280;25499;53.958;10.970;2023-12-20T14:57:42;99974.81;;;4.73;100.00
39823;BME280;25499;53.958;10.970;2023-12-20T15:00:10;99985.97;;;4.69;100.00
39823;BME280;25499;53.958;10.970;2023-12-20T15:02:41;99989.38;;;4.68;100.00
39823;BME280;25499;53.958;10.970;2023-12-20T15:05:10;99985.94;;;4.66;100.00
39823;BME280;25499;53.958;10.970;2023-12-20T15:07:36;99980.72;;;4.61;100.00
39823;BME280;25499;53.958;10.970;2023-12-20T15:10:05;99986.72;;;4.57;100.00
39823;BME280;25499;53.958;10.970;2023-12-20T15:12:32;99993.66;;;4.66;100.00
39823;BME280;25499;53.958;10.970;2023-12-20T15:14:59;99993.63;;;4.63;100.00
39823;BME280;25499;53.958;10.970;2023-12-20T15:17:26;100004.84;;;4.68;100.00
39823;BME280;25499;53.958;10.970;2023-12-20T15:19:53;100005.69;;;4.65;100.00
39823;BME280;25499;53.958;10.970;2023-12-20T15:22:21;99999.66;;;4.62;100.00
39823;BME280;25499;53.958;10.970;2023-12-20T15:24:48;99992.81;;;4.67;100.00
39823;BME280;25499;53.958;10.970;2023-12-20T15:27:16;100002.25;;;4.62;100.00
39823;BME280;25499;53.958;10.970;2023-12-20T15:29:43;100000.53;;;4.64;100.00
39823;BME280;25499;53.958;10.970;2023-12-20T15:32:10;99995.34;;;4.61;100.00
39823;BME280;25499;53.958;10.970;2023-12-20T15:34:37;100005.63;;;4.58;100.00
39823;BME280;25499;53.958;10.970;2023-12-20T15:37:03;100010.78;;;4.58;100.00
39823;BME280;25499;53.958;10.970;2023-12-20T15:39:32;100001.31;;;4.55;100.00
39823;BME280;25499;53.958;10.970;2023-12-20T15:41:58;100002.09;;;4.49;100.00
39823;BME280;25499;53.958;10.970;2023-12-20T15:44:27;100014.22;;;4.57;100.00
39823;BME280;25499;53.958;10.970;2023-12-20T15:46:54;100011.56;;;4.51;100.00
39823;BME280;25499;53.958;10.970;2023-12-20T15:49:20;100003.78;;;4.44;100.00
39823;BME280;25499;53.958;10.970;2023-12-20T15:51:47;100003.78;;;4.41;100.00
39823;BME280;25499;53.958;10.970;2023-12-20T15:54:14;100011.50;;;4.44;100.00
39823;BME280;25499;53.958;10.970;2023-12-20T15:56:42;100001.16;;;4.38;100.00
39823;BME280;25499;53.958;10.970;2023-12-20T15:59:10;100004.50;;;4.33;100.00
39823;BME280;25499;53.958;10.970;2023-12-20T16:01:37;100005.31;;;4.27;100.00
39823;BME280;25499;53.958;10.970;2023-12-20T16:04:04;100004.50;;;4.28;100.00
39823;BME280;25499;53.958;10.970;2023-12-20T16:06:31;100003.59;;;4.27;100.00
39823;BME280;25499;53.958;10.970;2023-12-20T16:08:58;100009.66;;;4.31;100.00
39823;BME280;25499;53.958;10.970;2023-12-20T16:11:25;100002.72;;;4.24;100.00
39823;BME280;25499;53.958;10.970;2023-12-20T16:13:53;100015.59;;;4.24;100.00
39823;BME280;25499;53.958;10.970;2023-12-20T16:16:21;100016.47;;;4.24;100.00
39823;BME280;25499;53.958;10.970;2023-12-20T16:18:48;100010.41;;;4.21;100.00
39823;BME280;25499;53.958;10.970;2023-12-20T16:21:14;100019.91;;;4.25;100.00
39823;BME280;25499;53.958;10.970;2023-12-20T16:23:44;100024.16;;;4.21;100.00
39823;BME280;25499;53.958;10.970;2023-12-20T16:26:12;100021.53;;;4.17;100.00
39823;BME280;25499;53.958;10.970;2023-12-20T16:28:38;100026.75;;;4.21;100.00
39823;BME280;25499;53.958;10.970;2023-12-20T16:31:07;100020.69;;;4.18;100.00
39823;BME280;25499;53.958;10.970;2023-12-20T16:33:33;100016.44;;;4.20;100.00
39823;BME280;25499;53.958;10.970;2023-12-20T16:36:00;100029.25;;;4.17;100.00
39823;BME280;25499;53.958;10.970;2023-12-20T16:38:27;100024.13;;;4.17;100.00
39823;BME280;25499;53.958;10.970;2023-12-20T16:40:54;100037.03;;;4.20;100.00
39823;BME280;25499;53.958;10.970;2023-12-20T16:43:20;100036.19;;;4.24;100.00
39823;BME280;25499;53.958;10.970;2023-12-20T16:45:48;100036.25;;;4.27;100.00
39823;BME280;25499;53.958;10.970;2023-12-20T16:48:16;100036.22;;;4.25;100.00
39823;BME280;25499;53.958;10.970;2023-12-20T16:50:43;100045.72;;;4.28;100.00
39823;BME280;25499;53.958;10.970;2023-12-20T16:53:10;100035.38;;;4.25;100.00
39823;BME280;25499;53.958;10.970;2023-12-20T16:55:37;100047.41;;;4.24;100.00
39823;BME280;25499;53.958;10.970;2023-12-20T16:58:04;100060.34;;;4.32;100.00
39823;BME280;25499;53.958;10.970;2023-12-20T17:00:31;100055.22;;;4.34;100.00
39823;BME280;25499;53.958;10.970;2023-12-20T17:02:58;100051.88;;;4.42;100.00
39823;BME280;25499;53.958;10.970;2023-12-20T17:05:26;100045.91;;;4.45;100.00
39823;BME280;25499;53.958;10.970;2023-12-20T17:07:53;100045.84;;;4.40;100.00
39823;BME280;25499;53.958;10.970;2023-12-20T17:10:20;100038.84;;;4.30;100.00
39823;BME280;25499;53.958;10.970;2023-12-20T17:12:47;100042.28;;;4.29;100.00
39823;BME280;25499;53.958;10.970;2023-12-20T17:15:14;100028.44;;;4.19;100.00
39823;BME280;25499;53.958;10.970;2023-12-20T17:17:41;100037.06;;;4.21;100.00
39823;BME280;25499;53.958;10.970;2023-12-20T17:20:08;100035.28;;;4.19;100.00
39823;BME280;25499;53.958;10.970;2023-12-20T17:22:37;100037.88;;;4.19;100.00
39823;BME280;25499;53.958;10.970;2023-12-20T17:25:04;100034.41;;;4.17;100.00
39823;BME280;25499;53.958;10.970;2023-12-20T17:27:31;100041.28;;;4.15;100.00
39823;BME280;25499;53.958;10.970;2023-12-20T17:29:57;100047.19;;;4.09;100.00
39823;BME280;25499;53.958;10.970;2023-12-20T17:32:24;100044.66;;;4.12;100.00
39823;BME280;25499;53.958;10.970;2023-12-20T17:34:51;100048.00;;;4.03;100.00
39823;BME280;25499;53.958;10.970;2023-12-20T17:37:18;100051.47;;;4.07;100.00
39823;BME280;25499;53.958;10.970;2023-12-20T17:39:46;100044.56;;;4.03;100.00
39823;BME280;25499;53.958;10.970;2023-12-20T17:42:13;100044.50;;;3.98;100.00
39823;BME280;25499;53.958;10.970;2023-12-20T17:44:40;100038.56;;;4.02;100.00
39823;BME280;25499;53.958;10.970;2023-12-20T17:47:07;100040.31;;;4.06;100.00
39823;BME280;25499;53.958;10.970;2023-12-20T17:49:34;100035.19;;;4.08;100.00
39823;BME280;25499;53.958;10.970;2023-12-20T17:52:00;100033.41;;;4.02;100.00
39823;BME280;25499;53.958;10.970;2023-12-20T17:54:28;100045.38;;;4.00;100.00
39823;BME280;25499;53.958;10.970;2023-12-20T17:56:56;100041.13;;;4.01;100.00
39823;BME280;25499;53.958;10.970;2023-12-20T17:59:24;100035.97;;;4.04;100.00
39823;BME280;25499;53.958;10.970;2023-12-20T18:01:51;100038.59;;;4.08;100.00
39823;BME280;25499;53.958;10.970;2023-12-20T18:04:18;100038.66;;;4.11;100.00
39823;BME280;25499;53.958;10.970;2023-12-20T18:06:45;100046.38;;;4.11;100.00
39823;BME280;25499;53.958;10.970;2023-12-20T18:09:12;100036.13;;;4.16;100.00
39823;BME280;25499;53.958;10.970;2023-12-20T18:11:39;100030.13;;;4.19;100.00
39823;BME280;25499;53.958;10.970;2023-12-20T18:14:07;100024.16;;;4.20;100.00
39823;BME280;25499;53.958;10.970;2023-12-20T18:16:35;100016.38;;;4.17;100.00
39823;BME280;25499;53.958;10.970;2023-12-20T18:19:02;100024.16;;;4.20;100.00
39823;BME280;25499;53.958;10.970;2023-12-20T18:21:29;100013.81;;;4.18;100.00
39823;BME280;25499;53.958;10.970;2023-12-20T18:23:56;100014.78;;;4.26;100.00
39823;BME280;25499;53.958;10.970;2023-12-20T18:26:23;100019.03;;;4.26;100.00
39823;BME280;25499;53.958;10.970;2023-12-20T18:28:50;100019.09;;;4.29;100.00
39823;BME280;25499;53.958;10.970;2023-12-20T18:31:18;100025.97;;;4.28;100.00
39823;BME280;25499;53.958;10.970;2023-12-20T18:33:46;100024.19;;;4.26;100.00
39823;BME280;25499;53.958;10.970;2023-12-20T18:36:14;100006.16;;;4.23;100.00
39823;BME280;25499;53.958;10.970;2023-12-20T18:38:40;100009.56;;;4.22;100.00
39823;BME280;25499;53.958;10.970;2023-12-20T18:41:07;100003.53;;;4.20;100.00
39823;BME280;25499;53.958;10.970;2023-12-20T18:43:35;99998.28;;;4.10;100.00
39823;BME280;25499;53.958;10.970;2023-12-20T18:46:02;99997.34;;;4.04;100.00
39823;BME280;25499;53.958;10.970;2023-12-20T18:48:30;100006.78;;;4.03;100.00
39823;BME280;25499;53.958;10.970;2023-12-20T18:50:58;100016.28;;;4.07;100.00
39823;BME280;25499;53.958;10.970;2023-12-20T18:53:25;100015.38;;;4.02;100.00
39823;BME280;25499;53.958;10.970;2023-12-20T18:55:53;100014.47;;;4.00;100.00
39823;BME280;25499;53.958;10.970;2023-12-20T18:58:19;100017.06;;;4.00;100.00
39823;BME280;25499;53.958;10.970;2023-12-20T19:00:46;100031.66;;;4.00;100.00
39823;BME280;25499;53.958;10.970;2023-12-20T19:03:13;100029.09;;;4.01;100.00
39823;BME280;25499;53.958;10.970;2023-12-20T19:05:41;100029.91;;;3.96;100.00
39823;BME280;25499;53.958;10.970;2023-12-20T19:08:08;100034.19;;;3.98;100.00
39823;BME280;25499;53.958;10.970;2023-12-20T19:10:35;100035.84;;;3.93;100.00
39823;BME280;25499;53.958;10.970;2023-12-20T19:13:02;100028.97;;;3.92;100.00
39823;BME280;25499;53.958;10.970;2023-12-20T19:15:29;100024.69;;;3.91;100.00
39823;BME280;25499;53.958;10.970;2023-12-20T19:17:55;100020.31;;;3.87;100.00
39823;BME280;25499;53.958;10.970;2023-12-20T19:20:22;100013.50;;;3.89;100.00
39823;BME280;25499;53.958;10.970;2023-12-20T19:22:50;100010.94;;;3.89;100.00
39823;BME280;25499;53.958;10.970;2023-12-20T19:25:17;100013.50;;;3.89;100.00
39823;BME280;25499;53.958;10.970;2023-12-20T19:27:44;100004.88;;;3.87;100.00
39823;BME280;25499;53.958;10.970;2023-12-20T19:30:12;99999.72;;;3.84;100.00
39823;BME280;25499;53.958;10.970;2023-12-20T19:32:39;99995.41;;;3.83;100.00
39823;BME280;25499;53.958;10.970;2023-12-20T19:35:07;99996.22;;;3.82;100.00
39823;BME280;25499;53.958;10.970;2023-12-20T19:37:34;99999.75;;;3.90;100.00
39823;BME280;25499;53.958;10.970;2023-12-20T19:40:02;99997.16;;;3.87;100.00
39823;BME280;25499;53.958;10.970;2023-12-20T19:42:29;99985.97;;;3.85;100.00
39823;BME280;25499;53.958;10.970;2023-12-20T19:44:59;99987.72;;;3.86;100.00
39823;BME280;25499;53.958;10.970;2023-12-20T19:47:26;99998.88;;;3.86;100.00
39823;BME280;25499;53.958;10.970;2023-12-20T19:49:53;99992.84;;;3.84;100.00
39823;BME280;25499;53.958;10.970;2023-12-20T19:52:21;99989.41;;;3.84;100.00